createdAt,value
2018-08-21T00:01:14.298Z,6.37
2018-08-21T00:03:41.581Z,6.00
2018-08-21T00:06:08.925Z,5.63
2018-08-21T00:08:36.178Z,6.20
2018-08-21T00:11:09.117Z,5.90
2018-08-21T00:13:36.401Z,5.17
2018-08-21T00:16:03.810Z,5.30
2018-08-21T00:18:31.098Z,5.53
2018-08-21T00:20:58.403Z,6.50
2018-08-21T00:23:25.713Z,5.90
2018-08-21T00:25:53.038Z,5.80
2018-08-21T00:28:20.328Z,5.70
2018-08-21T00:30:47.611Z,6.50
2018-08-21T00:33:14.877Z,5.80
2018-08-21T00:35:47.648Z,5.90
2018-08-21T00:38:15.629Z,6.10
2018-08-21T00:40:42.941Z,5.80
2018-08-21T00:43:10.321Z,5.73
2018-08-21T00:45:37.992Z,5.13
2018-08-21T00:48:05.638Z,5.20
2018-08-21T00:50:32.918Z,5.43
2018-08-21T00:53:01.636Z,5.83
2018-08-21T00:55:29.014Z,5.70
2018-08-21T00:57:56.470Z,6.20
2018-08-21T01:00:23.753Z,5.60
2018-08-21T01:02:51.038Z,4.90
2018-08-21T01:05:18.343Z,5.37
2018-08-21T01:07:45.914Z,5.33
2018-08-21T01:10:13.208Z,4.60
2018-08-21T01:12:40.522Z,5.13
2018-08-21T01:15:08.213Z,4.93
2018-08-21T01:17:35.468Z,4.50
2018-08-21T01:20:02.755Z,5.13
2018-08-21T01:22:30.104Z,5.90
2018-08-21T01:24:57.353Z,3.83
2018-08-21T01:27:24.609Z,4.40
2018-08-21T01:29:51.917Z,4.10
2018-08-21T01:32:19.235Z,4.53
2018-08-21T01:34:46.494Z,4.50
2018-08-21T01:37:13.775Z,4.60
2018-08-21T01:39:41.066Z,4.17
2018-08-21T01:42:08.305Z,3.87
2018-08-21T01:44:35.603Z,3.97
2018-08-21T01:47:08.280Z,4.30
2018-08-21T01:49:36.377Z,4.10
2018-08-21T01:52:03.686Z,3.67
2018-08-21T01:54:30.963Z,4.07
2018-08-21T01:56:58.220Z,4.03
2018-08-21T01:59:25.543Z,4.33
2018-08-21T02:01:52.791Z,5.40
2018-08-21T02:04:20.107Z,4.50
2018-08-21T02:06:47.395Z,4.13
2018-08-21T02:09:14.921Z,4.33
2018-08-21T02:11:42.757Z,4.80
2018-08-21T02:14:11.149Z,4.73
2018-08-21T02:16:39.124Z,3.90
2018-08-21T02:19:06.791Z,3.70
2018-08-21T02:21:34.083Z,4.13
2018-08-21T02:24:01.356Z,3.67
2018-08-21T02:26:28.687Z,3.80
2018-08-21T02:28:55.961Z,3.60
2018-08-21T02:31:23.321Z,3.23
2018-08-21T02:33:50.605Z,3.90
2018-08-21T02:36:17.894Z,3.67
2018-08-21T02:38:45.185Z,4.10
2018-08-21T02:41:12.504Z,3.97
2018-08-21T02:43:39.802Z,4.20
2018-08-21T02:46:12.641Z,3.83
2018-08-21T02:48:40.022Z,4.10
2018-08-21T02:51:13.027Z,3.70
2018-08-21T02:53:40.323Z,4.60
2018-08-21T02:56:07.619Z,3.63
2018-08-21T02:58:34.966Z,3.23
2018-08-21T03:01:02.903Z,3.40
2018-08-21T03:03:30.158Z,3.40
2018-08-21T03:05:57.431Z,3.40
2018-08-21T03:08:24.699Z,3.43
2018-08-21T03:10:52.029Z,4.03
2018-08-21T03:13:19.278Z,3.60
2018-08-21T03:15:46.547Z,3.33
2018-08-21T03:18:13.860Z,3.90
2018-08-21T03:20:41.126Z,3.70
2018-08-21T03:23:08.407Z,3.50
2018-08-21T03:25:35.683Z,3.07
2018-08-21T03:28:02.993Z,3.97
2018-08-21T03:30:30.257Z,3.40
2018-08-21T03:32:57.519Z,3.17
2018-08-21T03:35:24.814Z,3.33
2018-08-21T03:37:52.058Z,3.13
2018-08-21T03:40:19.427Z,3.60
2018-08-21T03:42:46.673Z,4.00
2018-08-21T03:45:13.994Z,3.60
2018-08-21T03:47:45.576Z,2.80
2018-08-21T03:50:15.938Z,3.60
2018-08-21T03:52:43.210Z,3.67
2018-08-21T03:55:10.993Z,3.23
2018-08-21T03:57:38.552Z,3.20
2018-08-21T04:00:11.305Z,3.83
2018-08-21T04:02:38.621Z,3.07
2018-08-21T04:05:06.840Z,3.00
2018-08-21T04:07:34.053Z,3.60
2018-08-21T04:10:01.333Z,3.20
2018-08-21T04:12:28.603Z,3.47
2018-08-21T04:14:55.857Z,3.20
2018-08-21T04:17:25.578Z,3.77
2018-08-21T04:19:54.647Z,3.20
2018-08-21T04:22:22.029Z,4.10
2018-08-21T04:24:50.115Z,3.20
2018-08-21T04:27:17.383Z,2.97
2018-08-21T04:29:44.886Z,4.40
2018-08-21T04:32:12.155Z,6.33
2018-08-21T04:34:45.412Z,3.10
2018-08-21T04:37:12.673Z,3.40
2018-08-21T04:39:39.926Z,3.90
2018-08-21T04:42:07.273Z,3.57
2018-08-21T04:44:36.936Z,4.37
2018-08-21T04:47:05.602Z,3.93
2018-08-21T04:49:32.878Z,4.40
2018-08-21T04:52:00.142Z,4.00
2018-08-21T04:54:27.546Z,4.43
2018-08-21T04:56:54.850Z,3.13
2018-08-21T04:59:22.125Z,3.10
2018-08-21T05:01:49.417Z,3.67
2018-08-21T05:04:26.619Z,3.20
2018-08-21T05:06:54.155Z,2.97
2018-08-21T05:09:21.409Z,3.00
2018-08-21T05:11:48.685Z,3.70
2018-08-21T05:14:15.942Z,5.47
2018-08-21T05:16:43.210Z,6.37
2018-08-21T05:19:10.505Z,3.60
2018-08-21T05:21:37.761Z,3.60
2018-08-21T05:24:05.021Z,3.13
2018-08-21T05:26:32.333Z,4.10
2018-08-21T05:28:59.585Z,3.40
2018-08-21T05:31:26.901Z,3.63
2018-08-21T05:33:54.170Z,4.87
2018-08-21T05:36:21.445Z,3.23
2018-08-21T05:38:48.706Z,2.80
2018-08-21T05:41:15.999Z,3.70
2018-08-21T05:43:43.326Z,3.50
2018-08-21T05:46:11.244Z,3.47
2018-08-21T05:48:38.909Z,3.27
2018-08-21T05:51:06.601Z,3.10
2018-08-21T05:53:34.042Z,2.90
2018-08-21T05:56:07.968Z,2.77
2018-08-21T05:58:35.277Z,3.63
2018-08-21T06:01:02.569Z,3.30
2018-08-21T06:03:29.904Z,2.77
2018-08-21T06:05:57.205Z,3.03
2018-08-21T06:08:24.492Z,3.50
2018-08-21T06:10:51.799Z,3.70
2018-08-21T06:13:19.106Z,3.00
2018-08-21T06:15:47.106Z,3.20
2018-08-21T06:18:16.666Z,4.00
2018-08-21T06:20:47.666Z,3.03
2018-08-21T06:23:16.227Z,3.20
2018-08-21T06:25:43.773Z,3.17
2018-08-21T06:28:11.987Z,3.10
2018-08-21T06:30:40.471Z,3.00
2018-08-21T06:33:08.891Z,2.90
2018-08-21T06:35:36.896Z,3.37
2018-08-21T06:38:04.597Z,3.20
2018-08-21T06:40:33.121Z,3.30
2018-08-21T06:43:00.407Z,3.30
2018-08-21T06:45:27.763Z,3.10
2018-08-21T06:47:55.043Z,2.93
2018-08-21T06:50:22.333Z,2.70
2018-08-21T06:52:49.590Z,3.10
2018-08-21T06:55:16.959Z,3.00
2018-08-21T06:57:44.266Z,2.60
2018-08-21T07:00:11.567Z,2.90
2018-08-21T07:02:38.892Z,2.90
2018-08-21T07:05:09.660Z,3.00
2018-08-21T07:07:37.228Z,2.67
2018-08-21T07:10:05.237Z,3.10
2018-08-21T07:12:32.525Z,3.13
2018-08-21T07:14:59.805Z,2.60
2018-08-21T07:17:31.382Z,3.60
2018-08-21T07:19:58.659Z,3.40
2018-08-21T07:22:25.970Z,3.07
2018-08-21T07:24:55.858Z,3.10
2018-08-21T07:27:27.839Z,3.30
2018-08-21T07:29:55.254Z,3.43
2018-08-21T07:32:28.012Z,3.50
2018-08-21T07:34:55.268Z,3.53
2018-08-21T07:37:22.569Z,3.80
2018-08-21T07:39:49.845Z,2.97
2018-08-21T07:42:17.154Z,2.80
2018-08-21T07:44:44.457Z,3.10
2018-08-21T07:47:11.745Z,2.80
2018-08-21T07:49:39.011Z,3.43
2018-08-21T07:52:06.280Z,2.83
2018-08-21T07:54:33.569Z,2.80
2018-08-21T07:57:00.834Z,2.60
2018-08-21T07:59:28.079Z,2.77
2018-08-21T08:01:55.549Z,2.63
2018-08-21T08:04:31.481Z,2.47
2018-08-21T08:07:03.067Z,2.40
2018-08-21T08:09:30.371Z,2.73
2018-08-21T08:11:57.654Z,2.60
2018-08-21T08:14:24.938Z,3.03
2018-08-21T08:16:52.215Z,2.60
2018-08-21T08:19:19.532Z,2.63
2018-08-21T08:21:46.782Z,2.40
2018-08-21T08:24:14.067Z,2.53
2018-08-21T08:26:41.370Z,2.83
2018-08-21T08:29:09.775Z,2.40
2018-08-21T08:31:38.112Z,2.47
2018-08-21T08:34:05.446Z,2.70
2018-08-21T08:36:32.820Z,2.80
2018-08-21T08:39:01.002Z,2.47
2018-08-21T08:41:30.150Z,2.50
2018-08-21T08:43:57.446Z,2.50
2018-08-21T08:46:24.759Z,2.50
2018-08-21T08:48:59.177Z,2.80
2018-08-21T08:51:26.516Z,3.00
2018-08-21T08:53:54.190Z,3.47
2018-08-21T08:56:21.484Z,2.80
2018-08-21T08:58:50.795Z,3.13
2018-08-21T09:01:18.101Z,2.97
2018-08-21T09:03:47.594Z,3.20
2018-08-21T09:06:23.436Z,3.37
2018-08-21T09:08:50.731Z,4.10
2018-08-21T09:11:20.104Z,5.13
2018-08-21T09:13:47.765Z,4.73
2018-08-21T09:16:15.163Z,4.80
2018-08-21T09:18:42.462Z,4.20
2018-08-21T09:21:09.795Z,3.90
2018-08-21T09:23:37.077Z,3.10
2018-08-21T09:26:06.159Z,3.40
2018-08-21T09:28:33.542Z,3.77
2018-08-21T09:31:01.066Z,4.20
2018-08-21T09:33:29.548Z,4.40
2018-08-21T09:35:57.056Z,4.37
2018-08-21T09:38:29.671Z,4.33
2018-08-21T09:41:00.465Z,5.60
2018-08-21T09:43:27.782Z,4.20
2018-08-21T09:45:55.367Z,5.00
2018-08-21T09:48:22.718Z,4.40
2018-08-21T09:50:50.041Z,4.63
2018-08-21T09:53:17.337Z,4.80
2018-08-21T09:55:44.621Z,5.60
2018-08-21T09:58:11.882Z,4.70
2018-08-21T10:00:44.738Z,5.13
2018-08-21T10:03:23.242Z,5.23
2018-08-21T10:05:58.025Z,6.40
2018-08-21T10:08:25.518Z,5.63
2018-08-21T10:10:52.849Z,6.60
2018-08-21T10:13:20.198Z,6.17
2018-08-21T10:15:47.532Z,5.43
2018-08-21T10:18:14.821Z,6.50
2018-08-21T10:20:42.089Z,6.80
2018-08-21T10:23:09.394Z,6.43
2018-08-21T10:25:36.652Z,6.43
2018-08-21T10:28:03.921Z,6.23
2018-08-21T10:30:31.249Z,6.90
2018-08-21T10:32:58.665Z,7.10
2018-08-21T10:35:25.964Z,6.73
2018-08-21T10:37:53.234Z,8.30
2018-08-21T10:40:20.546Z,7.33
2018-08-21T10:42:48.627Z,9.70
2018-08-21T10:45:16.177Z,6.87
2018-08-21T10:47:43.486Z,7.17
2018-08-21T10:50:10.966Z,7.13
2018-08-21T10:52:39.674Z,7.30
2018-08-21T10:55:07.330Z,6.23
2018-08-21T10:57:35.402Z,5.13
2018-08-21T11:00:02.727Z,5.60
2018-08-21T11:02:31.219Z,5.50
2018-08-21T11:05:04.123Z,5.43
2018-08-21T11:07:42.566Z,5.23
2018-08-21T11:10:10.023Z,4.80
2018-08-21T11:12:37.387Z,5.10
2018-08-21T11:15:04.736Z,4.90
2018-08-21T11:17:32.099Z,4.80
2018-08-21T11:19:59.385Z,5.10
2018-08-21T11:22:26.680Z,4.77
2018-08-21T11:24:54.066Z,5.07
2018-08-21T11:27:21.386Z,4.40
2018-08-21T11:29:48.722Z,4.57
2018-08-21T11:32:16.013Z,5.40
2018-08-21T11:34:43.308Z,5.57
2018-08-21T11:37:10.620Z,5.20
2018-08-21T11:39:37.902Z,5.47
2018-08-21T11:42:05.207Z,5.70
2018-08-21T11:44:32.540Z,4.90
2018-08-21T11:46:59.781Z,5.07
2018-08-21T11:49:27.070Z,4.30
2018-08-21T11:51:54.368Z,4.40
2018-08-21T11:54:21.630Z,4.67
2018-08-21T11:56:48.892Z,4.80
2018-08-21T11:59:16.196Z,3.90
2018-08-21T12:01:44.028Z,4.30
2018-08-21T12:04:11.352Z,4.30
2018-08-21T12:06:38.637Z,5.80
2018-08-21T12:09:07.259Z,5.73
2018-08-21T12:11:34.529Z,4.70
2018-08-21T12:14:01.772Z,4.90
2018-08-21T12:16:29.058Z,4.40
2018-08-21T12:18:56.340Z,5.30
2018-08-21T12:21:23.614Z,5.23
2018-08-21T12:23:50.953Z,4.60
2018-08-21T12:26:18.273Z,4.30
2018-08-21T12:28:45.571Z,3.70
2018-08-21T12:31:12.913Z,4.57
2018-08-21T12:33:40.231Z,4.50
2018-08-21T12:36:07.511Z,4.40
2018-08-21T12:38:34.773Z,3.70
2018-08-21T12:41:02.075Z,4.07
2018-08-21T12:43:36.457Z,4.40
2018-08-21T12:46:03.730Z,3.67
2018-08-21T12:48:30.989Z,3.30
2018-08-21T12:50:58.260Z,3.57
2018-08-21T12:53:25.535Z,3.40
2018-08-21T12:55:52.789Z,3.30
2018-08-21T12:58:20.027Z,3.30
2018-08-21T13:00:47.322Z,3.17
2018-08-21T13:03:14.625Z,3.27
2018-08-21T13:05:41.968Z,3.50
2018-08-21T13:08:09.237Z,2.90
2018-08-21T13:10:36.524Z,3.10
2018-08-21T13:13:03.792Z,3.10
2018-08-21T13:15:31.178Z,3.20
2018-08-21T13:17:58.448Z,2.80
2018-08-21T13:20:25.746Z,2.70
2018-08-21T13:22:53.019Z,2.80
2018-08-21T13:25:20.310Z,2.47
2018-08-21T13:27:47.586Z,2.80
2018-08-21T13:30:14.910Z,3.03
2018-08-21T13:32:42.232Z,2.50
2018-08-21T13:35:09.637Z,2.60
2018-08-21T13:37:36.927Z,2.50
2018-08-21T13:40:07.628Z,2.70
2018-08-21T13:42:35.090Z,2.57
2018-08-21T13:45:05.678Z,2.73
2018-08-21T13:47:42.030Z,2.30
2018-08-21T13:50:09.454Z,2.60
2018-08-21T13:52:40.717Z,2.77
2018-08-21T13:55:08.720Z,2.37
2018-08-21T13:57:36.046Z,2.50
2018-08-21T14:00:03.457Z,2.40
2018-08-21T14:02:30.716Z,2.30
2018-08-21T14:04:58.027Z,2.10
2018-08-21T14:07:25.333Z,2.10
2018-08-21T14:09:53.028Z,2.30
2018-08-21T14:12:20.390Z,2.43
2018-08-21T14:14:47.744Z,2.40
2018-08-21T14:17:15.071Z,2.70
2018-08-21T14:19:42.502Z,2.17
2018-08-21T14:22:09.788Z,2.40
2018-08-21T14:24:37.161Z,2.27
2018-08-21T14:27:04.465Z,2.40
2018-08-21T14:29:31.799Z,2.10
2018-08-21T14:31:59.093Z,2.50
2018-08-21T14:34:26.364Z,2.50
2018-08-21T14:36:53.693Z,2.87
2018-08-21T14:39:20.948Z,2.30
2018-08-21T14:41:48.240Z,2.40
2018-08-21T14:44:15.541Z,2.57
2018-08-21T14:46:42.812Z,2.37
2018-08-21T14:49:10.142Z,2.27
2018-08-21T14:51:37.525Z,2.23
2018-08-21T14:54:05.789Z,2.50
2018-08-21T14:56:33.068Z,2.40
2018-08-21T14:59:01.340Z,2.50
2018-08-21T15:01:28.638Z,2.37
2018-08-21T15:03:55.918Z,2.37
2018-08-21T15:06:23.250Z,2.77
2018-08-21T15:08:50.591Z,2.70
2018-08-21T15:11:17.860Z,2.40
2018-08-21T15:13:45.199Z,2.73
2018-08-21T15:16:12.554Z,3.30
2018-08-21T15:18:39.978Z,2.80
2018-08-21T15:21:07.205Z,2.47
2018-08-21T15:23:34.522Z,2.30
2018-08-21T15:26:01.812Z,3.70
2018-08-21T15:28:29.095Z,2.50
2018-08-21T15:30:56.434Z,2.47
2018-08-21T15:33:23.857Z,2.13
2018-08-21T15:35:51.138Z,2.50
2018-08-21T15:38:18.442Z,2.30
2018-08-21T15:40:45.965Z,2.30
2018-08-21T15:43:13.223Z,2.83
2018-08-21T15:45:40.888Z,2.30
2018-08-21T15:48:08.490Z,2.77
2018-08-21T15:50:35.773Z,2.47
2018-08-21T15:53:03.124Z,2.87
2018-08-21T15:55:30.384Z,2.80
2018-08-21T15:57:58.483Z,2.60
2018-08-21T16:00:25.813Z,2.60
2018-08-21T16:02:53.207Z,2.77
2018-08-21T16:05:20.687Z,2.40
2018-08-21T16:07:48.529Z,2.23
2018-08-21T16:10:16.329Z,2.30
2018-08-21T16:12:43.892Z,2.50
2018-08-21T16:15:11.206Z,2.50
2018-08-21T16:17:38.564Z,2.40
2018-08-21T16:20:05.897Z,2.50
2018-08-21T16:22:33.227Z,2.60
2018-08-21T16:25:00.732Z,2.50
2018-08-21T16:27:28.253Z,2.30
2018-08-21T16:29:55.550Z,2.40
2018-08-21T16:32:22.907Z,3.00
2018-08-21T16:34:50.192Z,2.60
2018-08-21T16:37:17.498Z,2.40
2018-08-21T16:39:45.047Z,2.47
2018-08-21T16:42:12.190Z,2.53
2018-08-21T16:44:39.436Z,2.93
2018-08-21T16:47:07.002Z,2.67
2018-08-21T16:49:34.333Z,2.77
2018-08-21T16:52:01.597Z,2.50
2018-08-21T16:54:28.886Z,2.40
2018-08-21T16:56:56.185Z,2.33
2018-08-21T16:59:23.495Z,2.80
2018-08-21T17:01:50.779Z,3.00
2018-08-21T17:04:18.071Z,3.03
2018-08-21T17:06:45.326Z,3.10
2018-08-21T17:09:12.592Z,3.10
2018-08-21T17:11:39.877Z,3.37
2018-08-21T17:14:07.310Z,2.80
2018-08-21T17:16:34.607Z,2.70
2018-08-21T17:19:01.879Z,2.83
2018-08-21T17:21:29.199Z,3.40
2018-08-21T17:23:56.464Z,2.90
2018-08-21T17:26:23.732Z,3.10
2018-08-21T17:28:50.981Z,2.80
2018-08-21T17:31:18.274Z,2.80
2018-08-21T17:33:45.590Z,3.20
2018-08-21T17:36:12.921Z,4.23
2018-08-21T17:38:40.208Z,2.90
2018-08-21T17:41:07.490Z,2.60
2018-08-21T17:43:34.825Z,2.63
2018-08-21T17:46:02.122Z,2.60
2018-08-21T17:48:29.546Z,3.00
2018-08-21T17:50:56.800Z,2.87
2018-08-21T17:53:24.116Z,3.30
2018-08-21T17:55:51.387Z,3.23
2018-08-21T17:58:18.667Z,3.27
2018-08-21T18:00:46.324Z,3.20
2018-08-21T18:03:13.604Z,3.17
2018-08-21T18:05:40.864Z,3.20
2018-08-21T18:08:08.110Z,2.90
2018-08-21T18:10:35.385Z,3.40
2018-08-21T18:13:02.739Z,3.30
2018-08-21T18:15:29.993Z,3.60
2018-08-21T18:17:57.267Z,3.10
2018-08-21T18:20:24.577Z,2.97
2018-08-21T18:22:51.901Z,3.53
2018-08-21T18:25:19.145Z,3.40
2018-08-21T18:27:46.455Z,3.30
2018-08-21T18:30:13.945Z,3.20
2018-08-21T18:32:41.243Z,3.33
2018-08-21T18:35:08.589Z,3.03
2018-08-21T18:37:35.959Z,3.13
2018-08-21T18:40:03.197Z,3.30
2018-08-21T18:42:30.534Z,3.30
2018-08-21T18:44:57.800Z,3.30
2018-08-21T18:47:25.118Z,3.07
2018-08-21T18:49:52.373Z,3.23
2018-08-21T18:52:19.648Z,3.40
2018-08-21T18:54:46.902Z,3.60
2018-08-21T18:57:14.164Z,3.20
2018-08-21T18:59:41.469Z,3.20
2018-08-21T19:02:08.764Z,3.20
2018-08-21T19:04:36.093Z,3.30
2018-08-21T19:07:03.425Z,3.30
2018-08-21T19:09:30.714Z,4.00
2018-08-21T19:11:57.994Z,3.17
2018-08-21T19:14:25.230Z,3.30
2018-08-21T19:16:52.495Z,3.37
2018-08-21T19:19:19.757Z,3.33
2018-08-21T19:21:47.016Z,4.13
2018-08-21T19:24:14.316Z,3.67
2018-08-21T19:26:41.593Z,3.70
2018-08-21T19:29:08.860Z,3.50
2018-08-21T19:31:36.134Z,4.47
2018-08-21T19:34:03.485Z,3.40
2018-08-21T19:36:30.784Z,3.30
2018-08-21T19:38:58.020Z,3.80
2018-08-21T19:41:25.338Z,3.60
2018-08-21T19:43:52.585Z,3.30
2018-08-21T19:46:19.866Z,4.40
2018-08-21T19:48:47.161Z,3.23
2018-08-21T19:51:14.507Z,3.33
2018-08-21T19:53:41.910Z,3.87
2018-08-21T19:56:09.190Z,3.73
2018-08-21T19:58:36.465Z,3.90
2018-08-21T20:01:03.823Z,4.67
2018-08-21T20:03:31.142Z,3.57
2018-08-21T20:05:58.609Z,4.07
2018-08-21T20:08:32.115Z,3.93
2018-08-21T20:11:01.946Z,4.17
2018-08-21T20:13:32.501Z,3.47
2018-08-21T20:16:02.571Z,5.00
2018-08-21T20:18:33.097Z,4.40
2018-08-21T20:21:01.735Z,4.23
2018-08-21T20:23:29.146Z,4.10
2018-08-21T20:25:58.791Z,4.27
2018-08-21T20:28:29.570Z,3.70
2018-08-21T20:30:58.387Z,4.07
2018-08-21T20:33:26.803Z,3.83
2018-08-21T20:35:54.284Z,3.70
2018-08-21T20:38:23.009Z,4.13
2018-08-21T20:40:53.593Z,3.77
2018-08-21T20:43:24.217Z,3.23
2018-08-21T20:45:54.332Z,4.47
2018-08-21T20:48:23.347Z,3.90
2018-08-21T20:50:52.857Z,4.13
2018-08-21T20:53:22.897Z,4.33
2018-08-21T20:55:53.612Z,3.50
2018-08-21T20:58:22.778Z,4.13
2018-08-21T21:00:52.050Z,4.20
2018-08-21T21:03:21.379Z,4.03
2018-08-21T21:05:50.014Z,3.93
2018-08-21T21:08:18.282Z,4.43
2018-08-21T21:10:46.777Z,3.43
2018-08-21T21:13:20.481Z,3.40
2018-08-21T21:15:54.440Z,3.77
2018-08-21T21:18:29.615Z,3.37
2018-08-21T21:21:03.797Z,4.27
2018-08-21T21:23:31.703Z,3.10
2018-08-21T21:26:02.434Z,3.80
2018-08-21T21:28:30.882Z,2.97
2018-08-21T21:30:59.487Z,3.57
2018-08-21T21:33:26.948Z,2.90
2018-08-21T21:35:57.668Z,3.80
2018-08-21T21:38:26.622Z,3.37
2018-08-21T21:40:55.578Z,3.07
2018-08-21T21:43:25.369Z,3.23
2018-08-21T21:45:53.094Z,3.00
2018-08-21T21:48:23.253Z,3.30
2018-08-21T21:50:51.264Z,3.60
2018-08-21T21:53:19.455Z,3.03
2018-08-21T21:55:48.763Z,2.90
2018-08-21T21:58:16.401Z,3.20
2018-08-21T22:00:43.658Z,3.13
2018-08-21T22:03:11.192Z,2.80
2018-08-21T22:05:38.694Z,3.20
2018-08-21T22:08:06.014Z,2.83
2018-08-21T22:10:33.328Z,3.33
2018-08-21T22:13:00.580Z,3.70
2018-08-21T22:15:27.900Z,2.90
2018-08-21T22:17:55.153Z,3.30
2018-08-21T22:20:22.385Z,2.90
2018-08-21T22:22:49.653Z,3.23
2018-08-21T22:25:16.983Z,3.07
2018-08-21T22:27:44.329Z,3.60
2018-08-21T22:30:11.557Z,2.87
2018-08-21T22:32:38.833Z,3.17
2018-08-21T22:35:06.128Z,3.37
2018-08-21T22:37:33.507Z,2.63
2018-08-21T22:40:00.805Z,3.80
2018-08-21T22:42:28.216Z,2.90
2018-08-21T22:44:55.469Z,3.10
2018-08-21T22:47:22.741Z,2.93
2018-08-21T22:49:50.009Z,2.90
2018-08-21T22:52:17.614Z,3.10
2018-08-21T22:54:44.906Z,3.07
2018-08-21T22:57:12.161Z,2.77
2018-08-21T22:59:39.456Z,2.77
2018-08-21T23:02:06.696Z,3.10
2018-08-21T23:04:34.005Z,2.77
2018-08-21T23:07:01.283Z,3.30
2018-08-21T23:09:28.551Z,3.13
2018-08-21T23:11:55.822Z,2.93
2018-08-21T23:14:23.065Z,2.60
2018-08-21T23:16:50.357Z,2.43
2018-08-21T23:19:17.612Z,2.50
2018-08-21T23:21:44.899Z,2.90
2018-08-21T23:24:12.279Z,2.87
2018-08-21T23:26:39.528Z,2.70
2018-08-21T23:29:06.805Z,3.50
2018-08-21T23:31:34.075Z,2.67
2018-08-21T23:34:01.312Z,2.60
2018-08-21T23:36:28.629Z,2.60
2018-08-21T23:38:55.877Z,2.73
2018-08-21T23:41:23.148Z,2.90
2018-08-21T23:43:50.416Z,2.87
2018-08-21T23:46:17.658Z,2.80
2018-08-21T23:48:45.749Z,2.90
2018-08-21T23:51:13.025Z,3.10
2018-08-21T23:53:40.285Z,3.20
2018-08-21T23:56:07.600Z,3.30
2018-08-21T23:58:35.060Z,3.27
